createdAt,value
2022-12-13T00:00:43.452Z,4.65
2022-12-13T00:04:45.309Z,4.72
2022-12-13T00:08:47.314Z,6.53
2022-12-13T00:12:49.024Z,5.13
2022-12-13T00:16:50.837Z,5.68
2022-12-13T00:20:52.857Z,6.47
2022-12-13T00:24:56.413Z,6.78
2022-12-13T00:29:01.134Z,5.75
2022-12-13T00:33:02.913Z,7.72
2022-12-13T00:37:04.675Z,6.30
2022-12-13T00:41:18.489Z,4.50
2022-12-13T00:45:20.226Z,3.55
2022-12-13T00:49:21.982Z,3.70
2022-12-13T00:53:23.702Z,6.57
2022-12-13T00:57:25.534Z,5.03
2022-12-13T01:01:33.137Z,6.03
2022-12-13T01:06:13.186Z,3.55
2022-12-13T01:09:58.303Z,3.80
2022-12-13T01:14:00.207Z,3.95
2022-12-13T01:18:01.919Z,5.80
2022-12-13T01:22:06.861Z,5.35
2022-12-13T01:26:12.354Z,3.47
2022-12-13T01:30:14.067Z,3.55
2022-12-13T01:34:19.277Z,3.67
2022-12-13T01:38:21.871Z,4.50
2022-12-13T01:42:28.207Z,4.00
2022-12-13T01:46:32.668Z,3.15
2022-12-13T01:50:42.328Z,2.65
2022-12-13T01:54:49.070Z,3.85
2022-12-13T01:58:52.432Z,3.92
2022-12-13T02:02:58.016Z,3.70
2022-12-13T02:07:00.455Z,4.18
2022-12-13T02:11:03.538Z,4.05
2022-12-13T02:15:13.127Z,4.85
2022-12-13T02:19:52.392Z,5.10
2022-12-13T02:24:21.796Z,4.65
2022-12-13T02:28:44.594Z,5.22
2022-12-13T02:33:12.534Z,5.78
2022-12-13T02:41:48.568Z,5.03
2022-12-13T02:46:00.941Z,5.05
2022-12-13T02:50:06.938Z,4.50
2022-12-13T02:54:08.939Z,3.40
2022-12-13T02:58:15.869Z,3.67
2022-12-13T03:03:07.272Z,6.53
2022-12-13T03:07:29.782Z,5.28
2022-12-13T03:11:52.310Z,3.83
2022-12-13T03:16:07.143Z,3.20
2022-12-13T03:20:12.515Z,3.47
2022-12-13T03:24:24.748Z,4.47
2022-12-13T03:28:26.467Z,4.05
2022-12-13T03:32:28.197Z,4.53
2022-12-13T03:36:30.104Z,3.92
2022-12-13T03:40:33.572Z,4.18
2022-12-13T03:44:35.315Z,4.03
2022-12-13T03:48:37.188Z,4.30
2022-12-13T03:52:39.009Z,3.17
2022-12-13T03:56:40.753Z,4.63
2022-12-13T04:00:42.504Z,3.70
2022-12-13T04:04:44.409Z,4.10
2022-12-13T04:08:46.539Z,3.45
2022-12-13T04:13:11.923Z,3.38
2022-12-13T04:17:13.812Z,3.45
2022-12-13T04:21:15.804Z,4.20
2022-12-13T04:25:17.768Z,4.55
2022-12-13T04:29:20.340Z,5.85
2022-12-13T04:33:23.196Z,3.55
2022-12-13T04:37:25.265Z,4.38
2022-12-13T04:41:27.157Z,5.00
2022-12-13T04:45:36.362Z,3.70
2022-12-13T04:49:38.125Z,5.05
2022-12-13T04:53:39.934Z,3.83
2022-12-13T04:57:41.735Z,3.80
2022-12-13T05:01:43.796Z,4.50
2022-12-13T05:05:45.900Z,4.85
2022-12-13T05:09:47.875Z,4.43
2022-12-13T05:13:49.927Z,5.38
2022-12-13T05:17:51.745Z,4.55
2022-12-13T05:21:53.614Z,4.38
2022-12-13T05:25:55.469Z,4.25
2022-12-13T05:30:03.636Z,3.95
2022-12-13T05:34:06.852Z,4.43
2022-12-13T05:38:08.983Z,3.28
2022-12-13T05:42:11.570Z,4.00
2022-12-13T05:46:14.391Z,3.08
2022-12-13T05:50:17.994Z,3.67
2022-12-13T05:54:19.933Z,4.70
2022-12-13T05:58:23.395Z,2.90
2022-12-13T06:02:25.656Z,2.80
2022-12-13T06:06:27.842Z,3.35
2022-12-13T06:10:34.005Z,2.92
2022-12-13T06:14:37.260Z,3.20
2022-12-13T06:18:39.097Z,3.30
2022-12-13T06:22:40.943Z,4.20
2022-12-13T06:26:45.454Z,3.53
2022-12-13T06:30:48.126Z,3.90
2022-12-13T06:34:50.211Z,4.85
2022-12-13T06:38:52.106Z,5.75
2022-12-13T06:42:54.247Z,5.38
2022-12-13T06:47:11.568Z,6.50
2022-12-13T06:51:23.004Z,4.50
2022-12-13T06:55:35.524Z,4.75
2022-12-13T06:59:37.485Z,4.43
2022-12-13T07:03:40.719Z,3.97
2022-12-13T07:07:42.465Z,5.50
2022-12-13T07:11:51.341Z,4.97
2022-12-13T07:21:40.960Z,5.38
2022-12-13T07:25:42.778Z,4.45
2022-12-13T07:29:44.644Z,5.22
2022-12-13T07:33:46.404Z,6.20
2022-12-13T07:37:48.178Z,5.82
2022-12-13T07:41:49.894Z,4.93
2022-12-13T07:45:52.529Z,7.00
2022-12-13T07:49:54.280Z,6.20
2022-12-13T07:53:56.054Z,4.85
2022-12-13T07:58:04.369Z,4.10
2022-12-13T08:02:10.038Z,4.35
2022-12-13T08:06:13.826Z,5.88
2022-12-13T08:10:16.809Z,5.32
2022-12-13T08:14:18.540Z,4.25
2022-12-13T08:18:20.266Z,5.13
2022-12-13T08:22:24.257Z,5.13
2022-12-13T08:26:26.177Z,5.90
2022-12-13T08:30:27.924Z,5.28
2022-12-13T08:34:30.050Z,5.07
2022-12-13T08:38:31.791Z,6.45
2022-12-13T08:42:33.569Z,5.30
2022-12-13T08:46:35.363Z,4.72
2022-12-13T08:50:37.109Z,4.82
2022-12-13T08:54:38.847Z,4.78
2022-12-13T08:58:40.618Z,5.97
2022-12-13T09:02:42.560Z,5.95
2022-12-13T09:06:44.441Z,7.93
2022-12-13T09:10:46.203Z,7.63
2022-12-13T09:14:47.971Z,5.30
2022-12-13T09:18:54.738Z,8.82
2022-12-13T09:23:01.541Z,8.50
2022-12-13T09:27:09.718Z,6.32
2022-12-13T09:31:14.836Z,7.57
2022-12-13T09:35:17.286Z,7.18
2022-12-13T09:39:19.029Z,7.13
2022-12-13T09:43:31.077Z,7.68
2022-12-13T09:47:37.802Z,6.50
2022-12-13T09:52:11.378Z,8.20
2022-12-13T09:56:13.939Z,7.13
2022-12-13T10:00:19.109Z,8.68
2022-12-13T10:04:20.902Z,7.93
2022-12-13T10:08:26.822Z,8.13
2022-12-13T10:12:29.224Z,8.93
2022-12-13T10:16:37.588Z,7.00
2022-12-13T10:20:41.257Z,4.50
2022-12-13T10:24:55.184Z,6.03
2022-12-13T10:29:05.433Z,6.85
2022-12-13T10:33:24.185Z,7.35
2022-12-13T10:37:29.756Z,9.02
2022-12-13T10:41:33.873Z,7.65
2022-12-13T10:45:35.696Z,9.98
2022-12-13T10:49:49.316Z,9.10
2022-12-13T10:53:55.103Z,9.20
2022-12-13T10:58:03.535Z,8.00
2022-12-13T11:02:41.733Z,6.72
2022-12-13T11:06:45.963Z,7.57
2022-12-13T11:10:59.831Z,8.07
2022-12-13T11:15:04.378Z,8.90
2022-12-13T11:19:16.863Z,8.40
2022-12-13T11:23:45.037Z,8.13
2022-12-13T11:28:26.328Z,7.72
2022-12-13T11:32:46.662Z,8.27
2022-12-13T11:36:48.678Z,7.28
2022-12-13T11:40:56.807Z,8.68
2022-12-13T11:45:13.691Z,8.63
2022-12-13T11:49:30.792Z,7.72
2022-12-13T11:54:04.808Z,7.22
2022-12-13T11:58:53.901Z,8.02
2022-12-13T12:02:53.669Z,8.18
2022-12-13T12:07:31.927Z,7.47
2022-12-13T12:11:50.855Z,8.45
2022-12-13T12:16:20.255Z,7.60
2022-12-13T12:20:42.040Z,7.70
2022-12-13T12:25:14.672Z,6.93
2022-12-13T12:29:28.676Z,7.22
2022-12-13T12:33:39.209Z,6.95
2022-12-13T12:37:54.624Z,6.13
2022-12-13T12:42:08.648Z,6.47
2022-12-13T12:47:18.169Z,6.68
2022-12-13T12:51:36.861Z,6.45
2022-12-13T12:55:57.158Z,6.30
2022-12-13T13:00:19.373Z,7.82
2022-12-13T13:04:29.433Z,7.30
2022-12-13T13:08:55.641Z,7.57
2022-12-13T13:13:11.656Z,7.95
2022-12-13T13:17:17.288Z,7.15
2022-12-13T13:21:26.163Z,7.40
2022-12-13T13:25:33.945Z,6.60
2022-12-13T13:29:44.030Z,7.05
2022-12-13T13:33:49.080Z,7.40
2022-12-13T13:37:51.252Z,7.90
2022-12-13T13:41:52.921Z,8.43
2022-12-13T13:45:59.421Z,8.65
2022-12-13T13:50:12.947Z,7.20
2022-12-13T13:54:59.166Z,5.63
2022-12-13T13:59:38.307Z,7.25
2022-12-13T14:03:58.516Z,8.30
2022-12-13T14:08:38.329Z,7.78
2022-12-13T14:13:04.130Z,6.97
2022-12-13T14:17:24.179Z,7.72
2022-12-13T14:21:52.006Z,7.20
2022-12-13T14:26:15.575Z,7.20
2022-12-13T14:30:28.538Z,7.15
2022-12-13T14:34:32.939Z,7.30
2022-12-13T14:38:34.662Z,6.95
2022-12-13T14:42:36.490Z,8.00
2022-12-13T14:46:47.707Z,7.15
2022-12-13T14:50:51.518Z,8.50
2022-12-13T14:54:59.748Z,6.63
2022-12-13T14:59:04.864Z,7.93
2022-12-13T15:03:07.367Z,8.07
2022-12-13T15:07:24.253Z,6.90
2022-12-13T15:15:35.080Z,4.60
2022-12-13T15:19:49.019Z,4.80
2022-12-13T15:23:53.108Z,4.75
2022-12-13T15:32:01.175Z,4.55
2022-12-13T15:36:08.867Z,4.63
2022-12-13T15:40:14.720Z,5.68
2022-12-13T15:44:36.658Z,5.47
2022-12-13T15:48:41.666Z,4.97
2022-12-13T15:53:01.386Z,5.65
2022-12-13T15:57:23.235Z,5.10
2022-12-13T16:01:34.147Z,4.90
2022-12-13T16:05:38.501Z,4.13
2022-12-13T16:09:40.404Z,4.45
2022-12-13T16:13:47.370Z,5.30
2022-12-13T16:17:54.855Z,4.63
2022-12-13T16:22:01.270Z,5.88
2022-12-13T16:26:08.496Z,4.97
2022-12-13T16:30:49.676Z,6.28
2022-12-13T16:34:51.423Z,5.25
2022-12-13T16:38:53.191Z,4.53
2022-12-13T16:42:58.835Z,5.15
2022-12-13T16:47:11.731Z,4.80
2022-12-13T16:51:22.750Z,4.32
2022-12-13T16:55:24.837Z,4.30
2022-12-13T16:59:27.832Z,4.13
2022-12-13T17:03:29.861Z,4.25
2022-12-13T17:07:31.666Z,5.00
2022-12-13T17:11:34.469Z,3.60
2022-12-13T17:15:37.134Z,4.28
2022-12-13T17:19:38.900Z,4.38
2022-12-13T17:23:40.774Z,5.40
2022-12-13T17:27:42.910Z,5.28
2022-12-13T17:31:44.774Z,4.47
2022-12-13T17:35:47.361Z,4.40
2022-12-13T17:39:49.152Z,4.05
2022-12-13T17:43:50.872Z,3.90
2022-12-13T17:47:52.609Z,4.50
2022-12-13T17:51:54.928Z,4.43
2022-12-13T17:55:58.743Z,3.75
2022-12-13T18:00:01.747Z,4.13
2022-12-13T18:04:03.803Z,3.30
2022-12-13T18:08:05.537Z,3.95
2022-12-13T18:12:08.479Z,3.50
2022-12-13T18:16:13.081Z,3.70
2022-12-13T18:20:14.997Z,3.50
2022-12-13T18:24:16.756Z,5.18
2022-12-13T18:28:18.516Z,4.25
2022-12-13T18:32:20.287Z,4.32
2022-12-13T18:36:24.285Z,3.90
2022-12-13T18:40:26.056Z,2.90
2022-12-13T18:44:28.263Z,5.10
2022-12-13T18:48:31.315Z,4.22
2022-12-13T18:52:33.564Z,3.70
2022-12-13T18:56:35.414Z,3.47
2022-12-13T19:00:37.165Z,3.60
2022-12-13T19:04:39.404Z,3.83
2022-12-13T19:08:41.166Z,3.67
2022-12-13T19:12:42.905Z,3.38
2022-12-13T19:16:44.636Z,2.83
2022-12-13T19:20:51.220Z,3.47
2022-12-13T19:24:52.990Z,3.75
2022-12-13T19:28:56.983Z,3.50
2022-12-13T19:32:58.706Z,5.03
2022-12-13T19:37:06.121Z,4.03
2022-12-13T19:41:14.365Z,4.68
2022-12-13T19:45:16.093Z,3.67
2022-12-13T19:49:17.833Z,6.38
2022-12-13T19:53:19.587Z,4.85
2022-12-13T19:57:21.844Z,5.50
2022-12-13T20:01:23.837Z,6.00
2022-12-13T20:05:26.008Z,4.78
2022-12-13T20:09:27.810Z,2.80
2022-12-13T20:13:30.123Z,3.92
2022-12-13T20:17:32.148Z,3.83
2022-12-13T20:21:33.975Z,3.30
2022-12-13T20:25:35.730Z,2.80
2022-12-13T20:29:38.609Z,2.50
2022-12-13T20:33:42.249Z,5.80
2022-12-13T20:37:44.753Z,6.35
2022-12-13T20:41:50.202Z,7.28
2022-12-13T20:45:51.924Z,5.70
2022-12-13T20:49:53.668Z,6.10
2022-12-13T20:53:56.323Z,4.10
2022-12-13T20:57:58.069Z,4.85
2022-12-13T21:02:00.072Z,6.70
2022-12-13T21:06:01.876Z,4.72
2022-12-13T21:10:03.874Z,4.38
2022-12-13T21:14:25.121Z,3.90
2022-12-13T21:18:26.841Z,3.42
2022-12-13T21:22:28.552Z,3.50
2022-12-13T21:26:35.224Z,3.60
2022-12-13T21:30:37.563Z,3.13
2022-12-13T21:34:40.086Z,3.13
2022-12-13T21:38:44.085Z,2.63
2022-12-13T21:42:46.532Z,3.10
2022-12-13T21:51:15.652Z,3.60
2022-12-13T21:55:38.292Z,3.13
2022-12-13T21:59:39.093Z,3.25
2022-12-13T22:03:40.829Z,3.67
2022-12-13T22:07:43.639Z,2.63
2022-12-13T22:11:49.957Z,2.90
2022-12-13T22:15:51.796Z,2.97
2022-12-13T22:19:54.103Z,2.88
2022-12-13T22:23:56.034Z,2.70
2022-12-13T22:27:57.782Z,3.08
2022-12-13T22:31:59.613Z,3.08
2022-12-13T22:36:01.491Z,2.88
2022-12-13T22:40:03.426Z,4.22
2022-12-13T22:44:05.155Z,3.65
2022-12-13T22:48:06.932Z,3.13
2022-12-13T22:52:08.728Z,2.78
2022-12-13T22:56:16.192Z,3.47
2022-12-13T23:00:18.184Z,3.25
2022-12-13T23:04:20.118Z,2.33
2022-12-13T23:08:21.856Z,2.80
2022-12-13T23:12:42.218Z,3.25
2022-12-13T23:16:44.582Z,2.83
2022-12-13T23:20:46.601Z,3.00
2022-12-13T23:24:51.696Z,2.80
2022-12-13T23:28:56.277Z,2.78
2022-12-13T23:32:58.016Z,2.47
2022-12-13T23:36:59.840Z,2.63
2022-12-13T23:41:06.771Z,2.47
2022-12-13T23:45:09.102Z,2.47
2022-12-13T23:49:10.848Z,3.40
2022-12-13T23:53:12.571Z,2.83
2022-12-13T23:57:14.321Z,3.78
